sensor_id;sensor_type;location;lat;lon;timestamp;pressure;altitude;pressure_sealevel;temperature;humidity
8515;BME280;4295;51.024;7.000;2022-10-22T00:00:37;9933.91;;;-15.68;100.00
8515;BME280;4295;51.024;7.000;2022-10-22T00:03:02;9933.03;;;-15.72;100.00
8515;BME280;4295;51.024;7.000;2022-10-22T00:05:28;9933.66;;;-15.69;100.00
8515;BME280;4295;51.024;7.000;2022-10-22T00:07:53;9622.31;;;-15.65;100.00
8515;BME280;4295;51.024;7.000;2022-10-22T00:10:18;9934.19;;;-15.67;100.00
8515;BME280;4295;51.024;7.000;2022-10-22T00:12:44;9622.06;;;-15.66;100.00
8515;BME280;4295;51.024;7.000;2022-10-22T00:15:09;9624.03;;;-15.58;100.00
8515;BME280;4295;51.024;7.000;2022-10-22T00:17:35;9312.50;;;-15.55;100.00
8515;BME280;4295;51.024;7.000;2022-10-22T00:20:00;9312.16;;;-15.56;100.00
8515;BME280;4295;51.024;7.000;2022-10-22T00:22:26;9312.03;;;-15.57;100.00
8515;BME280;4295;51.024;7.000;2022-10-22T00:24:51;9622.31;;;-15.65;100.00
8515;BME280;4295;51.024;7.000;2022-10-22T00:27:16;9621.56;;;-15.68;100.00
8515;BME280;4295;51.024;7.000;2022-10-22T00:29:42;9622.19;;;-15.66;100.00
8515;BME280;4295;51.024;7.000;2022-10-22T00:32:07;9623.66;;;-15.60;100.00
8515;BME280;4295;51.024;7.000;2022-10-22T00:34:32;9312.63;;;-15.54;100.00
8515;BME280;4295;51.024;7.000;2022-10-22T00:36:58;9000.59;;;-15.53;100.00
8515;BME280;4295;51.024;7.000;2022-10-22T00:39:24;9000.50;;;-15.53;100.00
8515;BME280;4295;51.024;7.000;2022-10-22T00:41:52;9001.22;;;-15.50;100.00
8515;BME280;4295;51.024;7.000;2022-10-22T00:45:00;9000.97;;;-15.51;100.00
8515;BME280;4295;51.024;7.000;2022-10-22T00:47:30;9000.72;;;-15.52;100.00
8515;BME280;4295;51.024;7.000;2022-10-22T00:49:58;9000.72;;;-15.52;100.00
8515;BME280;4295;51.024;7.000;2022-10-22T00:52:24;9001.91;;;-15.47;100.00
8515;BME280;4295;51.024;7.000;2022-10-22T00:54:50;8690.13;;;-15.45;100.00
8515;BME280;4295;51.024;7.000;2022-10-22T00:57:17;8690.34;;;-15.44;100.00
8515;BME280;4295;51.024;7.000;2022-10-22T00:59:44;8691.03;;;-15.41;100.00
8515;BME280;4295;51.024;7.000;2022-10-22T01:02:09;8690.94;;;-15.41;100.00
8515;BME280;4295;51.024;7.000;2022-10-22T01:04:35;8690.94;;;-15.41;100.00
8515;BME280;4295;51.024;7.000;2022-10-22T01:07:00;8690.47;;;-15.43;100.00
8515;BME280;4295;51.024;7.000;2022-10-22T01:15:05;9001.31;;;-15.50;100.00
8515;BME280;4295;51.024;7.000;2022-10-22T01:22:44;8379.91;;;-15.35;100.00
8515;BME280;4295;51.024;7.000;2022-10-22T01:28:02;9002.75;;;-15.44;100.00
8515;BME280;4295;51.024;7.000;2022-10-22T01:30:30;9000.84;;;-15.52;100.00
8515;BME280;4295;51.024;7.000;2022-10-22T01:32:58;9002.41;;;-15.45;100.00
8515;BME280;4295;51.024;7.000;2022-10-22T01:35:30;8690.56;;;-15.43;100.00
8515;BME280;4295;51.024;7.000;2022-10-22T01:37:59;9001.56;;;-15.49;100.00
8515;BME280;4295;51.024;7.000;2022-10-22T01:40:26;9001.91;;;-15.47;100.00
8515;BME280;4295;51.024;7.000;2022-10-22T01:43:03;9001.91;;;-15.47;100.00
8515;BME280;4295;51.024;7.000;2022-10-22T01:45:32;9002.75;;;-15.44;100.00
8515;BME280;4295;51.024;7.000;2022-10-22T02:04:42;9002.41;;;-15.45;100.00
8515;BME280;4295;51.024;7.000;2022-10-22T02:07:12;8690.13;;;-15.45;100.00
8515;BME280;4295;51.024;7.000;2022-10-22T02:09:40;8691.03;;;-15.41;100.00
8515;BME280;4295;51.024;7.000;2022-10-22T02:12:08;8689.88;;;-15.46;100.00
8515;BME280;4295;51.024;7.000;2022-10-22T02:14:37;8690.34;;;-15.44;100.00
8515;BME280;4295;51.024;7.000;2022-10-22T02:17:06;8690.47;;;-15.43;100.00
8515;BME280;4295;51.024;7.000;2022-10-22T02:19:40;8690.34;;;-15.44;100.00
8515;BME280;4295;51.024;7.000;2022-10-22T02:22:06;8378.75;;;-15.40;100.00
8515;BME280;4295;51.024;7.000;2022-10-22T02:24:32;8380.47;;;-15.32;100.00
8515;BME280;4295;51.024;7.000;2022-10-22T02:33:12;7447.41;;;-15.13;100.00
8515;BME280;4295;51.024;7.000;2022-10-22T02:35:40;7446.56;;;-15.17;100.00
8515;BME280;4295;51.024;7.000;2022-10-22T02:38:07;7757.78;;;-15.23;100.00
8515;BME280;4295;51.024;7.000;2022-10-22T02:40:33;7446.34;;;-15.18;100.00
8515;BME280;4295;51.024;7.000;2022-10-22T02:42:59;7134.97;;;-15.13;100.00
8515;BME280;4295;51.024;7.000;2022-10-22T02:45:24;7135.59;;;-15.10;100.00
8515;BME280;4295;51.024;7.000;2022-10-22T02:47:49;7135.59;;;-15.10;100.00
8515;BME280;4295;51.024;7.000;2022-10-22T02:50:15;7136.03;;;-15.08;100.00
8515;BME280;4295;51.024;7.000;2022-10-22T02:52:40;7135.72;;;-15.10;100.00
8515;BME280;4295;51.024;7.000;2022-10-22T02:55:06;7135.72;;;-15.10;100.00
8515;BME280;4295;51.024;7.000;2022-10-22T02:57:32;7135.09;;;-15.13;100.00
8515;BME280;4295;51.024;7.000;2022-10-22T02:59:57;7445.91;;;-15.20;100.00
8515;BME280;4295;51.024;7.000;2022-10-22T03:02:23;7445.06;;;-15.24;100.00
8515;BME280;4295;51.024;7.000;2022-10-22T03:04:48;7756.34;;;-15.29;100.00
8515;BME280;4295;51.024;7.000;2022-10-22T03:07:14;8066.75;;;-15.38;100.00
8515;BME280;4295;51.024;7.000;2022-10-22T03:09:39;8066.63;;;-15.39;100.00
8515;BME280;4295;51.024;7.000;2022-10-22T03:12:05;8066.28;;;-15.41;100.00
8515;BME280;4295;51.024;7.000;2022-10-22T03:14:30;8376.59;;;-15.50;100.00
8515;BME280;4295;51.024;7.000;2022-10-22T03:16:55;8376.72;;;-15.49;100.00
8515;BME280;4295;51.024;7.000;2022-10-22T03:19:21;8687.53;;;-15.56;100.00
8515;BME280;4295;51.024;7.000;2022-10-22T03:21:53;8687.31;;;-15.57;100.00
8515;BME280;4295;51.024;7.000;2022-10-22T03:24:23;8687.19;;;-15.57;100.00
8515;BME280;4295;51.024;7.000;2022-10-22T03:26:50;8998.22;;;-15.63;100.00
8515;BME280;4295;51.024;7.000;2022-10-22T03:29:17;8997.63;;;-15.65;100.00
8515;BME280;4295;51.024;7.000;2022-10-22T03:31:44;9307.13;;;-15.77;100.00
8515;BME280;4295;51.024;7.000;2022-10-22T03:34:09;9307.38;;;-15.76;100.00
8515;BME280;4295;51.024;7.000;2022-10-22T03:36:36;9307.88;;;-15.74;100.00
8515;BME280;4295;51.024;7.000;2022-10-22T03:39:04;9618.81;;;-15.79;100.00
8515;BME280;4295;51.024;7.000;2022-10-22T03:41:29;9617.94;;;-15.83;100.00
8515;BME280;4295;51.024;7.000;2022-10-22T03:43:55;9618.19;;;-15.82;100.00
8515;BME280;4295;51.024;7.000;2022-10-22T03:46:22;9929.09;;;-15.87;100.00
8515;BME280;4295;51.024;7.000;2022-10-22T03:48:47;9927.44;;;-15.94;100.00
8515;BME280;4295;51.024;7.000;2022-10-22T03:51:12;10238.66;;;-15.98;100.00
8515;BME280;4295;51.024;7.000;2022-10-22T03:53:38;10549.34;;;-16.04;100.00
8515;BME280;4295;51.024;7.000;2022-10-22T03:56:07;10547.88;;;-16.10;100.00
8515;BME280;4295;51.024;7.000;2022-10-22T03:58:33;10859.19;;;-16.13;100.00
8515;BME280;4295;51.024;7.000;2022-10-22T04:01:12;10859.06;;;-16.14;100.00
8515;BME280;4295;51.024;7.000;2022-10-22T04:03:38;10859.84;;;-16.11;100.00
8515;BME280;4295;51.024;7.000;2022-10-22T04:06:07;10549.06;;;-16.05;100.00
8515;BME280;4295;51.024;7.000;2022-10-22T04:08:32;10859.06;;;-16.14;100.00
8515;BME280;4295;51.024;7.000;2022-10-22T04:10:58;11170.63;;;-16.16;100.00
8515;BME280;4295;51.024;7.000;2022-10-22T04:13:23;11169.50;;;-16.20;100.00
8515;BME280;4295;51.024;7.000;2022-10-22T04:15:48;11169.38;;;-16.21;100.00
8515;BME280;4295;51.024;7.000;2022-10-22T04:18:19;11169.09;;;-16.22;100.00
8515;BME280;4295;51.024;7.000;2022-10-22T04:20:45;11168.69;;;-16.23;100.00
8515;BME280;4295;51.024;7.000;2022-10-22T04:23:11;11480.22;;;-16.26;100.00
8515;BME280;4295;51.024;7.000;2022-10-22T04:25:36;11169.09;;;-16.22;100.00
8515;BME280;4295;51.024;7.000;2022-10-22T04:28:05;10549.59;;;-16.03;100.00
8515;BME280;4295;51.024;7.000;2022-10-22T04:30:31;9929.47;;;-15.86;100.00
8515;BME280;4295;51.024;7.000;2022-10-22T04:32:56;9929.47;;;-15.86;100.00
8515;BME280;4295;51.024;7.000;2022-10-22T04:35:21;10239.81;;;-15.93;100.00
8515;BME280;4295;51.024;7.000;2022-10-22T04:37:47;10550.66;;;-15.99;100.00
8515;BME280;4295;51.024;7.000;2022-10-22T04:40:12;10860.66;;;-16.08;100.00
8515;BME280;4295;51.024;7.000;2022-10-22T04:42:37;11170.47;;;-16.17;100.00
8515;BME280;4295;51.024;7.000;2022-10-22T04:45:03;11481.19;;;-16.22;100.00
8515;BME280;4295;51.024;7.000;2022-10-22T04:47:28;11791.91;;;-16.28;100.00
8515;BME280;4295;51.024;7.000;2022-10-22T04:49:54;12102.13;;;-16.35;100.00
8515;BME280;4295;51.024;7.000;2022-10-22T04:52:19;12413.19;;;-16.39;100.00
8515;BME280;4295;51.024;7.000;2022-10-22T04:54:45;12411.88;;;-16.43;100.00
8515;BME280;4295;51.024;7.000;2022-10-22T04:57:11;12411.88;;;-16.43;100.00
8515;BME280;4295;51.024;7.000;2022-10-22T04:59:36;12412.47;;;-16.41;100.00
8515;BME280;4295;51.024;7.000;2022-10-22T05:02:02;12724.56;;;-16.42;100.00
8515;BME280;4295;51.024;7.000;2022-10-22T05:04:27;12413.50;;;-16.38;100.00
8515;BME280;4295;51.024;7.000;2022-10-22T05:06:52;12414.25;;;-16.35;100.00
8515;BME280;4295;51.024;7.000;2022-10-22T05:09:19;12104.44;;;-16.27;100.00
8515;BME280;4295;51.024;7.000;2022-10-22T05:11:47;12103.44;;;-16.30;100.00
8515;BME280;4295;51.024;7.000;2022-10-22T05:14:15;11794.47;;;-16.19;100.00
8515;BME280;4295;51.024;7.000;2022-10-22T05:16:41;11795.03;;;-16.17;100.00
8515;BME280;4295;51.024;7.000;2022-10-22T05:19:07;11794.75;;;-16.18;100.00
8515;BME280;4295;51.024;7.000;2022-10-22T05:21:33;11484.00;;;-16.12;100.00
8515;BME280;4295;51.024;7.000;2022-10-22T05:23:58;11173.50;;;-16.06;100.00
8515;BME280;4295;51.024;7.000;2022-10-22T05:26:24;11482.88;;;-16.16;100.00
8515;BME280;4295;51.024;7.000;2022-10-22T05:28:50;12103.28;;;-16.31;100.00
8515;BME280;4295;51.024;7.000;2022-10-22T05:31:17;12724.41;;;-16.42;100.00
8515;BME280;4295;51.024;7.000;2022-10-22T05:33:43;12722.47;;;-16.49;100.00
8515;BME280;4295;51.024;7.000;2022-10-22T05:36:14;13033.03;;;-16.54;100.00
8515;BME280;4295;51.024;7.000;2022-10-22T05:38:40;13343.72;;;-16.60;100.00
8515;BME280;4295;51.024;7.000;2022-10-22T05:41:08;13032.72;;;-16.55;100.00
8515;BME280;4295;51.024;7.000;2022-10-22T05:43:34;13342.78;;;-16.63;100.00
8515;BME280;4295;51.024;7.000;2022-10-22T05:46:04;13342.78;;;-16.63;100.00
8515;BME280;4295;51.024;7.000;2022-10-22T05:48:30;13343.56;;;-16.60;100.00
8515;BME280;4295;51.024;7.000;2022-10-22T05:50:56;13342.63;;;-16.63;100.00
8515;BME280;4295;51.024;7.000;2022-10-22T05:53:21;13343.25;;;-16.61;100.00
8515;BME280;4295;51.024;7.000;2022-10-22T05:55:46;13342.31;;;-16.64;100.00
8515;BME280;4295;51.024;7.000;2022-10-22T05:58:12;13342.63;;;-16.63;100.00
8515;BME280;4295;51.024;7.000;2022-10-22T06:00:38;13031.94;;;-16.58;100.00
8515;BME280;4295;51.024;7.000;2022-10-22T06:03:03;13652.00;;;-16.72;100.00
8515;BME280;4295;51.024;7.000;2022-10-22T06:05:29;13962.28;;;-16.78;100.00
8515;BME280;4295;51.024;7.000;2022-10-22T06:07:55;13962.44;;;-16.78;100.00
8515;BME280;4295;51.024;7.000;2022-10-22T06:10:22;13652.16;;;-16.72;100.00
8515;BME280;4295;51.024;7.000;2022-10-22T06:12:48;13343.09;;;-16.62;100.00
8515;BME280;4295;51.024;7.000;2022-10-22T06:15:15;12721.84;;;-16.51;100.00
8515;BME280;4295;51.024;7.000;2022-10-22T06:17:43;12101.53;;;-16.37;100.00
8515;BME280;4295;51.024;7.000;2022-10-22T06:20:09;11791.91;;;-16.28;100.00
8515;BME280;4295;51.024;7.000;2022-10-22T06:22:35;11482.88;;;-16.16;100.00
8515;BME280;4295;51.024;7.000;2022-10-22T06:25:00;10859.84;;;-16.11;100.00
8515;BME280;4295;51.024;7.000;2022-10-22T06:27:25;10550.13;;;-16.01;100.00
8515;BME280;4295;51.024;7.000;2022-10-22T06:29:51;10239.44;;;-15.95;100.00
8515;BME280;4295;51.024;7.000;2022-10-22T06:32:16;9929.22;;;-15.87;100.00
8515;BME280;4295;51.024;7.000;2022-10-22T06:34:41;9618.81;;;-15.79;100.00
8515;BME280;4295;51.024;7.000;2022-10-22T06:37:08;8996.31;;;-15.71;100.00
8515;BME280;4295;51.024;7.000;2022-10-22T06:39:34;8685.44;;;-15.65;100.00
8515;BME280;4295;51.024;7.000;2022-10-22T06:41:59;8686.50;;;-15.60;100.00
8515;BME280;4295;51.024;7.000;2022-10-22T06:44:25;8376.25;;;-15.51;100.00
8515;BME280;4295;51.024;7.000;2022-10-22T06:46:50;8064.63;;;-15.48;100.00
8515;BME280;4295;51.024;7.000;2022-10-22T06:49:17;7753.41;;;-15.43;100.00
8515;BME280;4295;51.024;7.000;2022-10-22T06:51:42;7754.50;;;-15.38;100.00
8515;BME280;4295;51.024;7.000;2022-10-22T06:54:08;7443.25;;;-15.33;100.00
8515;BME280;4295;51.024;7.000;2022-10-22T06:56:33;7444.00;;;-15.29;100.00
8515;BME280;4295;51.024;7.000;2022-10-22T06:58:58;7132.06;;;-15.27;100.00
8515;BME280;4295;51.024;7.000;2022-10-22T07:01:28;7132.69;;;-15.24;100.00
8515;BME280;4295;51.024;7.000;2022-10-22T07:03:54;7132.91;;;-15.23;100.00
8515;BME280;4295;51.024;7.000;2022-10-22T07:06:20;7132.69;;;-15.24;100.00
8515;BME280;4295;51.024;7.000;2022-10-22T07:08:46;7133.13;;;-15.22;100.00
8515;BME280;4295;51.024;7.000;2022-10-22T07:11:23;6821.06;;;-15.21;100.00
8515;BME280;4295;51.024;7.000;2022-10-22T07:13:49;6822.00;;;-15.16;100.00
8515;BME280;4295;51.024;7.000;2022-10-22T07:16:16;7132.69;;;-15.24;100.00
8515;BME280;4295;51.024;7.000;2022-10-22T07:18:43;7133.44;;;-15.21;100.00
8515;BME280;4295;51.024;7.000;2022-10-22T07:21:10;6821.78;;;-15.17;100.00
8515;BME280;4295;51.024;7.000;2022-10-22T07:23:36;6823.19;;;-15.10;100.00
8515;BME280;4295;51.024;7.000;2022-10-22T07:26:02;6201.00;;;-14.97;100.00
8515;BME280;4295;51.024;7.000;2022-10-22T07:28:29;5889.81;;;-14.91;100.00
8515;BME280;4295;51.024;7.000;2022-10-22T07:30:54;5578.97;;;-14.82;100.00
8515;BME280;4295;51.024;7.000;2022-10-22T07:33:20;5269.75;;;-14.64;100.00
8515;BME280;4295;51.024;7.000;2022-10-22T07:35:45;4958.94;;;-14.54;100.00
8515;BME280;4295;51.024;7.000;2022-10-22T07:38:10;4648.28;;;-14.43;100.00
8515;BME280;4295;51.024;7.000;2022-10-22T07:40:36;4336.97;;;-14.36;100.00
8515;BME280;4295;51.024;7.000;2022-10-22T07:43:02;3714.59;;;-14.18;100.00
8515;BME280;4295;51.024;7.000;2022-10-22T07:45:27;3404.44;;;-14.01;100.00
8515;BME280;4295;51.024;7.000;2022-10-22T07:47:53;3093.72;;;-13.88;100.00
8515;BME280;4295;51.024;7.000;2022-10-22T07:50:18;2471.25;;;-13.66;100.00
8515;BME280;4295;51.024;7.000;2022-10-22T07:52:44;2471.41;;;-13.65;100.00
8515;BME280;4295;51.024;7.000;2022-10-22T07:55:09;2159.94;;;-13.55;100.00
8515;BME280;4295;51.024;7.000;2022-10-22T07:57:35;2784.59;;;-13.61;100.00
8515;BME280;4295;51.024;7.000;2022-10-22T08:00:04;2785.63;;;-13.54;100.00
8515;BME280;4295;51.024;7.000;2022-10-22T08:02:30;2787.53;;;-13.40;100.00
8515;BME280;4295;51.024;7.000;2022-10-22T08:04:56;2788.94;;;-13.29;100.00
8515;BME280;4295;51.024;7.000;2022-10-22T08:07:21;3414.16;;;-13.34;100.00
8515;BME280;4295;51.024;7.000;2022-10-22T08:09:47;3728.56;;;-13.25;100.00
8515;BME280;4295;51.024;7.000;2022-10-22T08:12:12;4354.66;;;-13.25;100.00
8515;BME280;4295;51.024;7.000;2022-10-22T08:14:37;4357.25;;;-13.09;100.00
8515;BME280;4295;51.024;7.000;2022-10-22T08:17:03;4671.13;;;-13.05;100.00
8515;BME280;4295;51.024;7.000;2022-10-22T08:19:28;4985.41;;;-12.99;100.00
8515;BME280;4295;51.024;7.000;2022-10-22T08:21:57;5300.59;;;-12.88;100.00
8515;BME280;4295;51.024;7.000;2022-10-22T08:24:22;5926.69;;;-12.92;100.00
8515;BME280;4295;51.024;7.000;2022-10-22T08:26:47;6553.81;;;-12.91;100.00
8515;BME280;4295;51.024;7.000;2022-10-22T08:29:13;7180.13;;;-12.95;100.00
8515;BME280;4295;51.024;7.000;2022-10-22T08:31:38;7806.25;;;-12.99;100.00
8515;BME280;4295;51.024;7.000;2022-10-22T08:34:03;8432.88;;;-13.02;100.00
8515;BME280;4295;51.024;7.000;2022-10-22T08:36:30;8747.31;;;-12.98;100.00
8515;BME280;4295;51.024;7.000;2022-10-22T08:38:55;9688.06;;;-13.00;100.00
8515;BME280;4295;51.024;7.000;2022-10-22T08:41:22;10315.09;;;-13.02;100.00
8515;BME280;4295;51.024;7.000;2022-10-22T08:47:08;11880.44;;;-13.16;100.00
8515;BME280;4295;51.024;7.000;2022-10-22T08:49:41;12508.38;;;-13.16;100.00
8515;BME280;4295;51.024;7.000;2022-10-22T08:52:12;13136.00;;;-13.17;100.00
8515;BME280;4295;51.024;7.000;2022-10-22T09:08:04;14400.75;;;-12.90;100.00
8515;BME280;4295;51.024;7.000;2022-10-22T09:10:34;14718.03;;;-12.81;100.00
8515;BME280;4295;51.024;7.000;2022-10-22T09:13:00;15033.22;;;-12.79;100.00
8515;BME280;4295;51.024;7.000;2022-10-22T09:15:26;15349.16;;;-12.74;100.00
8515;BME280;4295;51.024;7.000;2022-10-22T09:23:57;18186.81;;;-12.57;100.00
8515;BME280;4295;51.024;7.000;2022-10-22T09:26:25;19133.53;;;-12.51;100.00
8515;BME280;4295;51.024;7.000;2022-10-22T09:28:50;20079.41;;;-12.49;100.00
8515;BME280;4295;51.024;7.000;2022-10-22T09:31:16;21967.44;;;-12.55;100.00
8515;BME280;4295;51.024;7.000;2022-10-22T09:33:44;23861.03;;;-12.50;100.00
8515;BME280;4295;51.024;7.000;2022-10-22T09:36:16;26696.13;;;-12.58;100.00
8515;BME280;4295;51.024;7.000;2022-10-22T09:38:47;28277.19;;;-12.53;100.00
8515;BME280;4295;51.024;7.000;2022-10-22T09:41:14;27650.72;;;-12.44;100.00
8515;BME280;4295;51.024;7.000;2022-10-22T09:43:39;28277.78;;;-12.52;100.00
8515;BME280;4295;51.024;7.000;2022-10-22T09:46:15;29857.53;;;-12.51;100.00
8515;BME280;4295;51.024;7.000;2022-10-22T09:48:47;29541.34;;;-12.51;100.00
8515;BME280;4295;51.024;7.000;2022-10-22T09:52:02;30806.31;;;-12.49;100.00
8515;BME280;4295;51.024;7.000;2022-10-22T09:54:23;32386.13;;;-12.50;100.00
8515;BME280;4295;51.024;7.000;2022-10-22T09:56:55;31441.16;;;-12.45;100.00
8515;BME280;4295;51.024;7.000;2022-10-22T09:59:28;29863.72;;;-12.40;100.00
8515;BME280;4295;51.024;7.000;2022-10-22T10:02:01;29544.84;;;-12.45;100.00
8515;BME280;4295;51.024;7.000;2022-10-22T10:04:33;30174.94;;;-12.48;100.00
8515;BME280;4295;51.024;7.000;2022-10-22T10:06:59;31112.88;;;-12.65;100.00
8515;BME280;4295;51.024;7.000;2022-10-22T10:09:25;33957.72;;;-12.65;100.00
8515;BME280;4295;51.024;7.000;2022-10-22T10:14:40;35539.91;;;-12.64;100.00
8515;BME280;4295;51.024;7.000;2022-10-22T10:19:48;37752.78;;;-12.68;100.00
8515;BME280;4295;51.024;7.000;2022-10-22T10:22:23;40602.78;;;-12.68;100.00
8515;BME280;4295;51.024;7.000;2022-10-22T10:27:56;41877.88;;;-12.59;100.00
8515;BME280;4295;51.024;7.000;2022-10-22T10:30:25;42824.19;;;-12.65;100.00
8515;BME280;4295;51.024;7.000;2022-10-22T10:47:09;58081.56;;;-12.61;100.00
8515;BME280;4295;51.024;7.000;2022-10-22T10:49:37;56820.78;;;-12.48;100.00
8515;BME280;4295;51.024;7.000;2022-10-22T10:55:09;67651.88;;;-12.60;100.00
8515;BME280;4295;51.024;7.000;2022-10-22T10:57:48;73726.94;;;-12.60;100.00
8515;BME280;4295;51.024;7.000;2022-10-22T11:00:20;72452.44;;;-12.56;100.00
8515;BME280;4295;51.024;7.000;2022-10-22T11:03:05;69577.75;;;-12.53;100.00
8515;BME280;4295;51.024;7.000;2022-10-22T11:05:54;77555.72;;;-12.69;100.00
8515;BME280;4295;51.024;7.000;2022-10-22T11:11:20;77896.38;;;-12.55;100.00
8515;BME280;4295;51.024;7.000;2022-10-22T11:13:51;79518.81;;;-12.40;100.00
8515;BME280;4295;51.024;7.000;2022-10-22T11:21:55;81172.66;;;-12.06;100.00
8515;BME280;4295;51.024;7.000;2022-10-22T11:24:26;85042.50;;;-11.95;100.00
8515;BME280;4295;51.024;7.000;2022-10-22T11:27:07;83114.69;;;-11.95;100.00
8515;BME280;4295;51.024;7.000;2022-10-22T11:29:43;82161.50;;;-11.88;100.00
8515;BME280;4295;51.024;7.000;2022-10-22T11:32:18;92732.16;;;-12.15;100.00
8515;BME280;4295;51.024;7.000;2022-10-22T11:34:53;97876.69;;;-12.21;100.00
8515;BME280;4295;51.024;7.000;2022-10-22T11:37:20;105293.31;;;-12.25;100.00
8515;BME280;4295;51.024;7.000;2022-10-22T11:39:50;102389.25;;;-12.24;100.00
8515;BME280;4295;51.024;7.000;2022-10-22T11:42:22;102392.00;;;-12.22;100.00
8515;BME280;4295;51.024;7.000;2022-10-22T11:47:31;107211.56;;;-12.36;100.00
8515;BME280;4295;51.024;7.000;2022-10-22T11:50:17;103649.56;;;-12.41;100.00
8515;BME280;4295;51.024;7.000;2022-10-22T11:52:59;101072.03;;;-12.38;100.00
8515;BME280;4295;51.024;7.000;2022-10-22T11:55:46;100457.19;;;-12.21;100.00
8515;BME280;4295;51.024;7.000;2022-10-22T12:00:50;107231.56;;;-12.26;100.00
8515;BME280;4295;51.024;7.000;2022-10-22T12:06:16;114343.03;;;-12.30;100.00
8515;BME280;4295;51.024;7.000;2022-10-22T12:09:05;113017.50;;;-12.45;100.00
8515;BME280;4295;51.024;7.000;2022-10-22T12:19:35;110839.63;;;-12.00;100.00
8515;BME280;4295;51.024;7.000;2022-10-22T12:24:38;107649.41;;;-11.76;100.00
8515;BME280;4295;51.024;7.000;2022-10-22T12:27:16;106391.16;;;-11.57;100.00
8515;BME280;4295;51.024;7.000;2022-10-22T12:29:41;106411.94;;;-11.46;100.00
8515;BME280;4295;51.024;7.000;2022-10-22T12:32:11;119996.16;;;-11.62;100.00
8515;BME280;4295;51.024;7.000;2022-10-22T12:34:47;126187.34;;;-11.56;100.00
8515;BME280;4295;51.024;7.000;2022-10-22T12:37:13;125554.34;;;-11.48;100.00
8515;BME280;4295;51.024;7.000;2022-10-22T12:39:40;122965.16;;;-11.42;100.00
8515;BME280;4295;51.024;7.000;2022-10-22T12:42:09;127515.13;;;-11.44;100.00
8515;BME280;4295;51.024;7.000;2022-10-22T12:44:36;125292.03;;;-11.19;100.00
8515;BME280;4295;51.024;7.000;2022-10-22T12:47:02;121739.94;;;-11.06;100.00
8515;BME280;4295;51.024;7.000;2022-10-22T12:49:37;124058.09;;;-10.88;100.00
8515;BME280;4295;51.024;7.000;2022-10-22T12:52:05;129028.31;;;-10.51;100.00
8515;BME280;4295;51.024;7.000;2022-10-22T12:54:33;142146.81;;;-10.32;100.00
8515;BME280;4295;51.024;7.000;2022-10-22T12:56:59;142244.44;;;-9.92;100.00
8515;BME280;4295;51.024;7.000;2022-10-22T13:01:54;142270.72;;;-9.82;100.00
8515;BME280;4295;51.024;7.000;2022-10-22T13:07:21;142195.56;;;-10.12;100.00
8515;BME280;4295;51.024;7.000;2022-10-22T13:09:58;142228.16;;;-9.99;100.00
8515;BME280;4295;51.024;7.000;2022-10-22T13:12:26;142239.41;;;-9.94;100.00
8515;BME280;4295;51.024;7.000;2022-10-22T13:14:51;142269.47;;;-9.82;100.00
8515;BME280;4295;51.024;7.000;2022-10-22T13:17:37;142238.13;;;-9.95;100.00
8515;BME280;4295;51.024;7.000;2022-10-22T13:20:14;142248.19;;;-9.91;100.00
8515;BME280;4295;51.024;7.000;2022-10-22T13:22:51;142223.16;;;-10.01;100.00
8515;BME280;4295;51.024;7.000;2022-10-22T13:25:26;142269.47;;;-9.82;100.00
8515;BME280;4295;51.024;7.000;2022-10-22T13:28:01;142219.38;;;-10.02;100.00
8515;BME280;4295;51.024;7.000;2022-10-22T13:30:36;142215.66;;;-10.04;100.00
8515;BME280;4295;51.024;7.000;2022-10-22T13:33:18;142281.97;;;-9.77;100.00
8515;BME280;4295;51.024;7.000;2022-10-22T13:35:46;142284.50;;;-9.76;100.00
8515;BME280;4295;51.024;7.000;2022-10-22T13:38:18;142244.44;;;-9.92;100.00
8515;BME280;4295;51.024;7.000;2022-10-22T13:40:44;142159.31;;;-10.27;100.00
8515;BME280;4295;51.024;7.000;2022-10-22T13:43:10;142188.13;;;-10.15;100.00
8515;BME280;4295;51.024;7.000;2022-10-22T13:45:35;142181.84;;;-10.17;100.00
8515;BME280;4295;51.024;7.000;2022-10-22T13:48:01;142189.38;;;-10.14;100.00
8515;BME280;4295;51.024;7.000;2022-10-22T13:50:26;142203.09;;;-10.09;100.00
8515;BME280;4295;51.024;7.000;2022-10-22T13:52:54;142230.63;;;-9.98;100.00
8515;BME280;4295;51.024;7.000;2022-10-22T13:55:24;142293.25;;;-9.73;100.00
8515;BME280;4295;51.024;7.000;2022-10-22T13:57:50;142317.06;;;-9.63;100.00
8515;BME280;4295;51.024;7.000;2022-10-22T14:00:18;142344.63;;;-9.52;100.00
8515;BME280;4295;51.024;7.000;2022-10-22T14:02:45;142372.19;;;-9.41;100.00
8515;BME280;4295;51.024;7.000;2022-10-22T14:05:11;142318.28;;;-9.62;100.00
8515;BME280;4295;51.024;7.000;2022-10-22T14:07:37;142283.22;;;-9.77;100.00
8515;BME280;4295;51.024;7.000;2022-10-22T14:10:32;142293.25;;;-9.73;100.00
8515;BME280;4295;51.024;7.000;2022-10-22T14:12:58;142264.47;;;-9.84;100.00
8515;BME280;4295;51.024;7.000;2022-10-22T14:15:26;142303.31;;;-9.69;100.00
8515;BME280;4295;51.024;7.000;2022-10-22T14:17:55;142320.81;;;-9.61;100.00
8515;BME280;4295;51.024;7.000;2022-10-22T14:20:23;142348.38;;;-9.50;100.00
8515;BME280;4295;51.024;7.000;2022-10-22T14:22:50;142358.41;;;-9.46;100.00
8515;BME280;4295;51.024;7.000;2022-10-22T14:25:18;142363.41;;;-9.44;100.00
8515;BME280;4295;51.024;7.000;2022-10-22T14:27:44;142378.44;;;-9.38;100.00
8515;BME280;4295;51.024;7.000;2022-10-22T14:30:18;142302.03;;;-9.69;100.00
8515;BME280;4295;51.024;7.000;2022-10-22T14:32:44;142271.97;;;-9.81;100.00
8515;BME280;4295;51.024;7.000;2022-10-22T14:35:12;142208.13;;;-10.07;100.00
8515;BME280;4295;51.024;7.000;2022-10-22T14:37:39;142149.34;;;-10.31;100.00
8515;BME280;4295;51.024;7.000;2022-10-22T14:40:05;142109.25;;;-10.47;100.00
8515;BME280;4295;51.024;7.000;2022-10-22T14:42:33;142092.97;;;-10.53;100.00
8515;BME280;4295;51.024;7.000;2022-10-22T14:45:03;142057.94;;;-10.67;100.00
8515;BME280;4295;51.024;7.000;2022-10-22T14:47:28;142069.25;;;-10.63;100.00
8515;BME280;4295;51.024;7.000;2022-10-22T14:49:54;142088.00;;;-10.55;100.00
8515;BME280;4295;51.024;7.000;2022-10-22T14:52:19;142086.72;;;-10.56;100.00
8515;BME280;4295;51.024;7.000;2022-10-22T14:54:45;142067.97;;;-10.63;100.00
8515;BME280;4295;51.024;7.000;2022-10-22T14:57:10;142059.22;;;-10.67;100.00
8515;BME280;4295;51.024;7.000;2022-10-22T14:59:38;142070.44;;;-10.62;100.00
8515;BME280;4295;51.024;7.000;2022-10-22T15:02:04;142056.69;;;-10.68;100.00
8515;BME280;4295;51.024;7.000;2022-10-22T15:04:29;142075.50;;;-10.60;100.00